createdAt,value
2019-03-18T00:01:18.025Z,99713.28
2019-03-18T00:03:48.619Z,99716.24
2019-03-18T00:06:19.151Z,99709.98
2019-03-18T00:08:49.644Z,99710.57
2019-03-18T00:11:20.197Z,99723.38
2019-03-18T00:13:50.708Z,99732.89
2019-03-18T00:16:21.226Z,99726.37
2019-03-18T00:18:51.925Z,99721.85
2019-03-18T00:21:22.524Z,99723.16
2019-03-18T00:23:53.034Z,99728.28
2019-03-18T00:26:26.009Z,99732.89
2019-03-18T00:28:56.469Z,99726.13
2019-03-18T00:31:26.990Z,99727.33
2019-03-18T00:33:57.560Z,99732.43
2019-03-18T00:36:28.040Z,99739.79
2019-03-18T00:38:58.609Z,99739.20
2019-03-18T00:41:29.124Z,99740.75
2019-03-18T00:43:59.605Z,99736.36
2019-03-18T00:46:30.173Z,99738.61
2019-03-18T00:49:00.690Z,99740.98
2019-03-18T00:51:31.215Z,99736.34
2019-03-18T00:54:01.716Z,99731.35
2019-03-18T00:56:32.403Z,99737.42
2019-03-18T00:59:02.878Z,99743.61
2019-03-18T01:01:33.460Z,99743.86
2019-03-18T01:04:04.007Z,99742.42
2019-03-18T01:06:34.522Z,99737.90
2019-03-18T01:09:06.652Z,99743.14
2019-03-18T01:11:37.199Z,99741.95
2019-03-18T01:14:07.685Z,99730.88
2019-03-18T01:16:38.207Z,99740.77
2019-03-18T01:19:08.734Z,99740.17
2019-03-18T01:21:39.258Z,99730.41
2019-03-18T01:24:09.673Z,99731.11
2019-03-18T01:26:40.163Z,99751.92
2019-03-18T01:29:10.679Z,99754.80
2019-03-18T01:31:41.226Z,99755.63
2019-03-18T01:34:11.792Z,99753.22
2019-03-18T01:36:42.306Z,99755.25
2019-03-18T01:39:12.854Z,99750.02
2019-03-18T01:41:43.505Z,99746.23
2019-03-18T01:44:13.999Z,99740.28
2019-03-18T01:46:44.513Z,99751.08
2019-03-18T01:49:15.030Z,99764.37
2019-03-18T01:51:45.515Z,99770.89
2019-03-18T01:54:16.092Z,99761.00
2019-03-18T01:56:46.620Z,99768.47
2019-03-18T01:59:17.176Z,99759.21
2019-03-18T02:01:47.686Z,99766.83
2019-03-18T02:04:18.232Z,99769.22
2019-03-18T02:06:48.756Z,99756.41
2019-03-18T02:09:19.263Z,99761.24
2019-03-18T02:11:49.797Z,99756.41
2019-03-18T02:14:20.346Z,99755.20
2019-03-18T02:16:50.868Z,99758.14
2019-03-18T02:19:21.397Z,99758.14
2019-03-18T02:21:51.922Z,99754.59
2019-03-18T02:24:22.428Z,99769.66
2019-03-18T02:26:53.173Z,99763.25
2019-03-18T02:29:23.776Z,99766.21
2019-03-18T02:31:54.307Z,99766.81
2019-03-18T02:34:24.859Z,99769.77
2019-03-18T02:36:55.386Z,99781.06
2019-03-18T02:39:25.890Z,99768.36
2019-03-18T02:41:56.453Z,99769.55
2019-03-18T02:44:27.006Z,99770.75
2019-03-18T02:46:57.456Z,99768.02
2019-03-18T02:49:27.968Z,99775.50
2019-03-18T02:51:58.441Z,99774.06
2019-03-18T02:54:29.032Z,99765.41
2019-03-18T02:56:59.572Z,99760.42
2019-03-18T02:59:30.125Z,99764.48
2019-03-18T03:02:00.614Z,99777.07
2019-03-18T03:04:31.220Z,99771.63
2019-03-18T03:07:01.733Z,99773.98
2019-03-18T03:09:32.256Z,99776.00
2019-03-18T03:12:02.754Z,99766.26
2019-03-18T03:14:33.296Z,99777.33
2019-03-18T03:17:03.805Z,99765.80
2019-03-18T03:19:34.361Z,99769.25
2019-03-18T03:22:05.013Z,99772.45
2019-03-18T03:24:35.444Z,99778.16
2019-03-18T03:27:06.016Z,99786.61
2019-03-18T03:29:36.527Z,99787.66
2019-03-18T03:32:07.063Z,99793.84
2019-03-18T03:34:37.581Z,99802.73
2019-03-18T03:37:08.146Z,99822.69
2019-03-18T03:39:38.574Z,99809.11
2019-03-18T03:42:09.110Z,99822.72
2019-03-18T03:44:39.615Z,99822.26
2019-03-18T03:47:10.122Z,99826.74
2019-03-18T03:49:40.625Z,99830.41
2019-03-18T03:52:11.191Z,99832.45
2019-03-18T03:54:41.844Z,99831.97
2019-03-18T03:57:12.698Z,99824.13
2019-03-18T03:59:43.212Z,99831.30
2019-03-18T04:02:13.760Z,99831.05
2019-03-18T04:04:44.428Z,99833.09
2019-03-18T04:07:15.589Z,99824.52
2019-03-18T04:09:46.196Z,99827.62
2019-03-18T04:12:16.853Z,99820.76
2019-03-18T04:14:47.384Z,99816.24
2019-03-18T04:17:17.898Z,99820.52
2019-03-18T04:19:48.479Z,99822.17
2019-03-18T04:22:19.010Z,99818.72
2019-03-18T04:24:49.548Z,99831.59
2019-03-18T04:27:20.266Z,99829.80
2019-03-18T04:29:50.833Z,99820.27
2019-03-18T04:32:21.351Z,99829.41
2019-03-18T04:34:51.947Z,99836.92
2019-03-18T04:37:22.433Z,99833.11
2019-03-18T04:39:53.015Z,99836.08
2019-03-18T04:42:23.580Z,99839.43
2019-03-18T04:44:54.163Z,99841.09
2019-03-18T04:47:24.739Z,99837.06
2019-03-18T04:49:58.624Z,99833.77
2019-03-18T04:52:29.088Z,99823.04
2019-03-18T04:54:59.714Z,99837.66
2019-03-18T04:57:30.249Z,99845.14
2019-03-18T05:00:00.782Z,99850.74
2019-03-18T05:02:31.276Z,99858.09
2019-03-18T05:05:01.842Z,99865.37
2019-03-18T05:07:32.337Z,99876.17
2019-03-18T05:10:03.293Z,99876.53
2019-03-18T05:12:33.954Z,99879.14
2019-03-18T05:15:05.063Z,99879.98
2019-03-18T05:17:35.794Z,99874.76
2019-03-18T05:20:06.578Z,99878.32
2019-03-18T05:22:37.206Z,99876.77
2019-03-18T05:25:08.126Z,99870.59
2019-03-18T05:27:38.859Z,99882.00
2019-03-18T05:30:09.669Z,99884.86
2019-03-18T05:32:40.316Z,99886.16
2019-03-18T05:35:11.005Z,99895.91
2019-03-18T05:37:41.526Z,99891.99
2019-03-18T05:40:12.297Z,99899.72
2019-03-18T05:42:43.020Z,99911.27
2019-03-18T05:45:13.853Z,99904.59
2019-03-18T05:47:44.436Z,99917.31
2019-03-18T05:50:15.159Z,99927.03
2019-03-18T05:52:45.817Z,99920.63
2019-03-18T05:55:16.401Z,99923.24
2019-03-18T05:57:47.083Z,99921.37
2019-03-18T06:00:17.878Z,99916.00
2019-03-18T06:02:48.539Z,99915.66
2019-03-18T06:05:19.135Z,99920.88
2019-03-18T06:07:49.754Z,99920.06
2019-03-18T06:10:20.375Z,99917.09
2019-03-18T06:12:50.938Z,99931.36
2019-03-18T06:15:21.555Z,99940.41
2019-03-18T06:17:53.161Z,99945.41
2019-03-18T06:20:23.799Z,99948.27
2019-03-18T06:22:54.409Z,99943.16
2019-03-18T06:25:25.051Z,99943.05
2019-03-18T06:27:55.590Z,99941.48
2019-03-18T06:30:26.218Z,99951.95
2019-03-18T06:32:57.191Z,99952.92
2019-03-18T06:35:27.675Z,99956.39
2019-03-18T06:37:58.272Z,99959.71
2019-03-18T06:40:28.901Z,99966.25
2019-03-18T06:42:59.373Z,99971.83
2019-03-18T06:45:29.908Z,99957.18
2019-03-18T06:48:05.284Z,99966.33
2019-03-18T06:50:32.651Z,99970.39
2019-03-18T06:53:03.213Z,99980.28
2019-03-18T06:55:36.059Z,99981.94
2019-03-18T06:58:06.689Z,99986.25
2019-03-18T07:00:37.235Z,99987.17
2019-03-18T07:03:07.745Z,100004.88
2019-03-18T07:05:38.280Z,100002.78
2019-03-18T07:08:09.085Z,100012.64
2019-03-18T07:10:39.669Z,100021.13
2019-03-18T07:13:10.215Z,100047.98
2019-03-18T07:15:40.725Z,100072.59
2019-03-18T07:18:17.971Z,100063.84
2019-03-18T07:20:43.638Z,100079.95
2019-03-18T07:23:14.204Z,100055.34
2019-03-18T07:25:44.768Z,100053.39
2019-03-18T07:28:17.967Z,100047.97
2019-03-18T07:30:47.521Z,100066.97
2019-03-18T07:33:18.114Z,100057.91
2019-03-18T07:35:48.612Z,100057.00
2019-03-18T07:38:19.297Z,100067.36
2019-03-18T07:40:50.065Z,100063.72
2019-03-18T07:43:20.654Z,100061.14
2019-03-18T07:45:51.308Z,100069.88
2019-03-18T07:48:30.707Z,100069.22
2019-03-18T07:50:54.267Z,100067.58
2019-03-18T07:53:24.844Z,100072.27
2019-03-18T07:55:55.808Z,100071.56
2019-03-18T07:58:26.502Z,100079.34
2019-03-18T08:00:57.193Z,100079.34
2019-03-18T08:03:28.306Z,100088.16
2019-03-18T08:05:59.032Z,100086.85
2019-03-18T08:08:29.705Z,100086.37
2019-03-18T08:11:00.527Z,100111.00
2019-03-18T08:13:31.160Z,100112.65
2019-03-18T08:16:01.860Z,100108.64
2019-03-18T08:18:42.748Z,100134.08
2019-03-18T08:21:05.052Z,100142.17
2019-03-18T08:23:35.621Z,100137.03
2019-03-18T08:26:06.319Z,100152.19
2019-03-18T08:28:36.948Z,100154.31
2019-03-18T08:31:07.543Z,100170.89
2019-03-18T08:33:38.180Z,100161.64
2019-03-18T08:36:08.825Z,100144.78
2019-03-18T08:38:39.465Z,100149.81
2019-03-18T08:41:10.177Z,100146.60
2019-03-18T08:43:40.785Z,100153.53
2019-03-18T08:46:11.519Z,100151.72
2019-03-18T08:48:42.204Z,100157.27
2019-03-18T08:51:12.955Z,100157.86
2019-03-18T08:53:43.746Z,100156.75
2019-03-18T08:56:14.449Z,100170.51
2019-03-18T08:58:45.065Z,100158.94
2019-03-18T09:01:15.614Z,100153.37
2019-03-18T09:03:46.255Z,100162.20
2019-03-18T09:06:16.787Z,100165.31
2019-03-18T09:08:47.292Z,100174.03
2019-03-18T09:11:17.818Z,100183.58
2019-03-18T09:13:48.377Z,100171.45
2019-03-18T09:16:18.871Z,100192.39
2019-03-18T09:18:53.593Z,100207.76
2019-03-18T09:21:24.105Z,100200.47
2019-03-18T09:23:54.591Z,100221.19
2019-03-18T09:26:25.172Z,100222.05
2019-03-18T09:28:55.792Z,100219.23
2019-03-18T09:31:26.438Z,100223.89
2019-03-18T09:33:57.223Z,100218.50
2019-03-18T09:36:29.791Z,100223.16
2019-03-18T09:39:00.571Z,100225.91
2019-03-18T09:41:31.197Z,100233.33
2019-03-18T09:44:01.864Z,100214.17
2019-03-18T09:46:32.443Z,100229.92
2019-03-18T09:49:03.089Z,100226.97
2019-03-18T09:51:33.662Z,100233.39
2019-03-18T09:54:04.303Z,100235.55
2019-03-18T09:56:34.860Z,100263.53
2019-03-18T09:59:05.414Z,100302.08
2019-03-18T10:01:36.078Z,100303.94
2019-03-18T10:04:06.809Z,100293.19
2019-03-18T10:06:41.143Z,100295.42
2019-03-18T10:09:11.908Z,100286.66
2019-03-18T10:11:42.547Z,100293.96
2019-03-18T10:14:13.380Z,100293.92
2019-03-18T10:16:44.004Z,100301.13
2019-03-18T10:19:14.489Z,100290.95
2019-03-18T10:21:44.995Z,100309.43
2019-03-18T10:24:15.547Z,100292.77
2019-03-18T10:26:46.048Z,100288.25
2019-03-18T10:29:16.518Z,100305.36
2019-03-18T10:31:47.036Z,100305.37
2019-03-18T10:34:17.554Z,100299.30
2019-03-18T10:36:48.064Z,100339.23
2019-03-18T10:39:18.487Z,100318.30
2019-03-18T10:41:49.001Z,100318.30
2019-03-18T10:44:19.577Z,100328.16
2019-03-18T10:46:50.196Z,100339.10
2019-03-18T10:49:20.686Z,100345.55
2019-03-18T10:51:51.289Z,100365.79
2019-03-18T10:54:30.755Z,100357.64
2019-03-18T10:56:53.892Z,100359.45
2019-03-18T10:59:24.392Z,100373.80
2019-03-18T11:01:54.921Z,100381.91
2019-03-18T11:04:25.369Z,100387.10
2019-03-18T11:06:55.873Z,100361.50
2019-03-18T11:09:26.465Z,100370.96
2019-03-18T11:11:56.967Z,100364.41
2019-03-18T11:14:27.433Z,100354.07
2019-03-18T11:16:58.031Z,100377.13
2019-03-18T11:19:28.502Z,100364.61
2019-03-18T11:21:58.993Z,100370.47
2019-03-18T11:24:29.569Z,100410.05
2019-03-18T11:27:00.174Z,100439.69
2019-03-18T11:29:50.847Z,100440.76
2019-03-18T11:32:21.690Z,100436.48
2019-03-18T11:34:52.236Z,100448.70
2019-03-18T11:37:22.820Z,100432.77
2019-03-18T11:39:53.347Z,100438.64
2019-03-18T11:42:23.876Z,100443.23
2019-03-18T11:44:54.391Z,100458.84
2019-03-18T11:47:25.231Z,100458.84
2019-03-18T11:49:55.756Z,100466.91
2019-03-18T11:52:26.378Z,100463.55
2019-03-18T11:54:56.955Z,100459.41
2019-03-18T11:57:27.466Z,100464.97
2019-03-18T11:59:58.049Z,100466.50
2019-03-18T12:02:28.571Z,100447.72
2019-03-18T12:04:59.040Z,100466.70
2019-03-18T12:07:30.223Z,100460.82
2019-03-18T12:10:01.424Z,100448.23
2019-03-18T12:12:32.037Z,100462.81
2019-03-18T12:15:02.736Z,100448.05
2019-03-18T12:17:33.280Z,100443.89
2019-03-18T12:20:03.816Z,100451.11
2019-03-18T12:22:35.596Z,100482.73
2019-03-18T12:25:07.067Z,100498.21
2019-03-18T12:27:37.584Z,100489.84
2019-03-18T12:30:14.485Z,100487.39
2019-03-18T12:32:45.005Z,100495.70
2019-03-18T12:35:15.589Z,100473.97
2019-03-18T12:37:46.175Z,100477.48
2019-03-18T12:40:16.851Z,100485.20
2019-03-18T12:42:47.372Z,100475.83
2019-03-18T12:45:18.083Z,100486.20
2019-03-18T12:47:48.719Z,100489.66
2019-03-18T12:50:36.023Z,100480.31
2019-03-18T12:52:51.528Z,100480.26
2019-03-18T12:55:22.337Z,100473.33
2019-03-18T12:57:52.850Z,100486.81
2019-03-18T13:00:23.809Z,100481.67
2019-03-18T13:02:54.407Z,100529.78
2019-03-18T13:05:24.940Z,100540.47
2019-03-18T13:07:55.531Z,100542.63
2019-03-18T13:10:25.988Z,100537.88
2019-03-18T13:12:56.742Z,100536.31
2019-03-18T13:15:27.500Z,100567.83
2019-03-18T13:17:58.011Z,100548.03
2019-03-18T13:20:28.537Z,100544.47
2019-03-18T13:22:59.025Z,100545.76
2019-03-18T13:25:29.507Z,100546.82
2019-03-18T13:28:00.017Z,100536.88
2019-03-18T13:30:30.602Z,100545.05
2019-03-18T13:33:01.066Z,100562.34
2019-03-18T13:35:31.549Z,100562.45
2019-03-18T13:38:02.102Z,100547.46
2019-03-18T13:40:32.592Z,100546.28
2019-03-18T13:43:03.276Z,100573.05
2019-03-18T13:45:33.803Z,100586.06
2019-03-18T13:48:04.344Z,100596.94
2019-03-18T13:50:34.832Z,100584.28
2019-03-18T13:53:05.422Z,100592.64
2019-03-18T13:55:35.877Z,100587.77
2019-03-18T13:58:06.401Z,100606.06
2019-03-18T14:00:36.935Z,100617.53
2019-03-18T14:03:07.394Z,100613.02
2019-03-18T14:05:37.918Z,100617.34
2019-03-18T14:08:08.442Z,100646.87
2019-03-18T14:10:38.928Z,100632.03
2019-03-18T14:13:09.432Z,100643.30
2019-03-18T14:15:39.960Z,100633.52
2019-03-18T14:18:10.545Z,100640.33
2019-03-18T14:20:41.034Z,100641.70
2019-03-18T14:23:12.187Z,100640.27
2019-03-18T14:25:45.343Z,100646.53
2019-03-18T14:28:14.941Z,100645.64
2019-03-18T14:30:45.741Z,100651.94
2019-03-18T14:33:16.246Z,100659.27
2019-03-18T14:35:46.761Z,100668.00
2019-03-18T14:38:17.251Z,100663.39
2019-03-18T14:40:47.744Z,100645.60
2019-03-18T14:43:18.231Z,100651.84
2019-03-18T14:45:48.837Z,100665.56
2019-03-18T14:48:19.306Z,100669.60
2019-03-18T14:50:49.826Z,100664.64
2019-03-18T14:53:20.387Z,100708.16
2019-03-18T14:55:50.830Z,100715.97
2019-03-18T14:58:21.334Z,100711.53
2019-03-18T15:00:51.884Z,100694.48
2019-03-18T15:03:22.435Z,100696.45
2019-03-18T15:05:52.914Z,100697.53
2019-03-18T15:08:23.412Z,100704.53
2019-03-18T15:10:53.923Z,100697.42
2019-03-18T15:13:30.735Z,100700.48
2019-03-18T15:15:56.746Z,100745.06
2019-03-18T15:18:27.245Z,100709.01
2019-03-18T15:20:57.774Z,100717.12
2019-03-18T15:23:28.342Z,100735.37
2019-03-18T15:25:58.854Z,100729.94
2019-03-18T15:28:29.351Z,100739.16
2019-03-18T15:30:59.915Z,100751.79
2019-03-18T15:33:30.436Z,100744.70
2019-03-18T15:36:00.954Z,100746.38
2019-03-18T15:38:31.499Z,100743.84
2019-03-18T15:41:02.232Z,100740.56
2019-03-18T15:43:32.807Z,100763.75
2019-03-18T15:46:03.455Z,100790.09
2019-03-18T15:48:34.162Z,100798.77
2019-03-18T15:51:04.696Z,100803.19
2019-03-18T15:53:35.371Z,100821.61
2019-03-18T15:56:06.082Z,100814.18
2019-03-18T15:58:37.807Z,100832.55
2019-03-18T16:01:09.287Z,100822.98
2019-03-18T16:03:40.051Z,100851.63
2019-03-18T16:06:10.768Z,100846.36
2019-03-18T16:08:41.806Z,100849.34
2019-03-18T16:11:12.488Z,100836.69
2019-03-18T16:13:44.448Z,100833.56
2019-03-18T16:16:15.237Z,100847.02
2019-03-18T16:18:47.734Z,100857.87
2019-03-18T16:21:18.373Z,100829.64
2019-03-18T16:24:02.142Z,100834.26
2019-03-18T16:26:23.382Z,100841.38
2019-03-18T16:28:53.945Z,100855.41
2019-03-18T16:31:24.621Z,100866.64
2019-03-18T16:33:55.254Z,100852.72
2019-03-18T16:36:25.884Z,100858.80
2019-03-18T16:38:56.417Z,100856.08
2019-03-18T16:41:26.875Z,100874.86
2019-03-18T16:43:57.371Z,100864.56
2019-03-18T16:46:27.932Z,100894.78
2019-03-18T16:48:58.377Z,100870.27
2019-03-18T16:51:28.880Z,100877.90
2019-03-18T16:53:59.464Z,100885.36
2019-03-18T16:56:29.993Z,100886.52
2019-03-18T16:59:00.485Z,100891.02
2019-03-18T17:01:31.102Z,100882.48
2019-03-18T17:04:01.544Z,100891.24
2019-03-18T17:06:32.083Z,100887.17
2019-03-18T17:09:02.621Z,100896.30
2019-03-18T17:11:33.170Z,100893.35
2019-03-18T17:14:03.719Z,100897.11
2019-03-18T17:16:34.242Z,100896.69
2019-03-18T17:19:04.770Z,100887.48
2019-03-18T17:21:35.291Z,100892.25
2019-03-18T17:24:05.871Z,100903.53
2019-03-18T17:26:36.402Z,100902.34
2019-03-18T17:29:06.983Z,100907.78
2019-03-18T17:31:37.768Z,100919.77
2019-03-18T17:34:08.393Z,100929.78
2019-03-18T17:36:38.926Z,100929.13
2019-03-18T17:39:10.519Z,100932.31
2019-03-18T17:41:41.037Z,100937.01
2019-03-18T17:44:11.565Z,100949.59
2019-03-18T17:46:42.159Z,100954.87
2019-03-18T17:49:12.721Z,100950.66
2019-03-18T17:51:43.237Z,100955.80
2019-03-18T17:54:13.711Z,100967.15
2019-03-18T17:56:44.219Z,100972.95
2019-03-18T17:59:14.753Z,100971.36
2019-03-18T18:01:45.315Z,100976.23
2019-03-18T18:04:15.814Z,100976.28
2019-03-18T18:06:46.262Z,100982.89
2019-03-18T18:09:16.811Z,100996.20
2019-03-18T18:11:47.367Z,101001.84
2019-03-18T18:14:17.850Z,101003.15
2019-03-18T18:16:48.465Z,101026.11
2019-03-18T18:19:18.956Z,101026.99
2019-03-18T18:21:49.441Z,101022.19
2019-03-18T18:24:20.004Z,101026.30
2019-03-18T18:26:50.525Z,101024.78
2019-03-18T18:29:21.061Z,101035.97
2019-03-18T18:31:51.670Z,101037.19
2019-03-18T18:34:22.209Z,101037.16
2019-03-18T18:36:52.845Z,101044.41
2019-03-18T18:39:23.371Z,101050.08
2019-03-18T18:41:53.892Z,101059.52
2019-03-18T18:44:24.368Z,101053.55
2019-03-18T18:46:54.881Z,101058.92
2019-03-18T18:49:25.298Z,101071.35
2019-03-18T18:51:55.927Z,101079.97
2019-03-18T18:54:26.309Z,101088.59
2019-03-18T18:56:57.235Z,101088.97
2019-03-18T18:59:27.804Z,101091.31
2019-03-18T19:01:58.263Z,101106.72
2019-03-18T19:04:28.744Z,101107.77
2019-03-18T19:06:59.321Z,101114.86
2019-03-18T19:09:29.981Z,101109.78
2019-03-18T19:12:00.500Z,101116.61
2019-03-18T19:14:31.216Z,101112.50
2019-03-18T19:17:01.705Z,101116.09
2019-03-18T19:19:32.358Z,101111.24
2019-03-18T19:22:02.920Z,101113.48
2019-03-18T19:24:33.427Z,101116.54
2019-03-18T19:27:03.922Z,101128.07
2019-03-18T19:29:34.472Z,101131.38
2019-03-18T19:32:04.997Z,101131.86
2019-03-18T19:34:35.540Z,101128.17
2019-03-18T19:37:06.186Z,101138.97
2019-03-18T19:39:36.726Z,101140.98
2019-03-18T19:42:07.278Z,101142.03
2019-03-18T19:44:37.818Z,101143.49
2019-03-18T19:47:08.407Z,101152.30
2019-03-18T19:49:38.960Z,101150.55
2019-03-18T19:52:09.529Z,101159.47
2019-03-18T19:54:40.078Z,101163.70
2019-03-18T19:57:10.586Z,101170.38
2019-03-18T19:59:41.237Z,101185.75
2019-03-18T20:02:11.719Z,101184.89
2019-03-18T20:04:42.231Z,101192.73
2019-03-18T20:07:13.217Z,101193.98
2019-03-18T20:09:43.736Z,101202.65
2019-03-18T20:12:14.441Z,101206.56
2019-03-18T20:14:45.728Z,101199.59
2019-03-18T20:17:16.293Z,101209.34
2019-03-18T20:19:46.916Z,101208.14
2019-03-18T20:22:17.551Z,101207.14
2019-03-18T20:24:48.300Z,101211.52
2019-03-18T20:27:18.904Z,101216.51
2019-03-18T20:29:49.895Z,101217.44
2019-03-18T20:32:20.572Z,101221.88
2019-03-18T20:34:51.108Z,101222.70
2019-03-18T20:37:21.762Z,101231.33
2019-03-18T20:39:52.397Z,101234.08
2019-03-18T20:42:22.906Z,101234.02
2019-03-18T20:44:53.841Z,101239.23
2019-03-18T20:47:24.383Z,101238.61
2019-03-18T20:49:55.044Z,101238.44
2019-03-18T20:52:25.805Z,101243.66
2019-03-18T20:54:56.310Z,101239.50
2019-03-18T20:57:26.857Z,101244.59
2019-03-18T20:59:57.424Z,101252.97
2019-03-18T21:02:27.978Z,101252.97
2019-03-18T21:04:59.176Z,101256.95
2019-03-18T21:07:29.947Z,101255.72
2019-03-18T21:10:00.536Z,101260.63
2019-03-18T21:12:31.135Z,101267.77
2019-03-18T21:15:01.862Z,101266.78
2019-03-18T21:17:32.445Z,101271.70
2019-03-18T21:20:02.956Z,101270.70
2019-03-18T21:22:33.549Z,101276.02
2019-03-18T21:25:04.197Z,101275.55
2019-03-18T21:27:34.793Z,101282.30
2019-03-18T21:30:06.518Z,101283.38
2019-03-18T21:32:37.050Z,101296.61
2019-03-18T21:35:08.102Z,101285.23
2019-03-18T21:37:38.667Z,101318.05
2019-03-18T21:40:11.725Z,101343.00
2019-03-18T21:42:42.228Z,101343.00
2019-03-18T21:45:15.705Z,101349.08
2019-03-18T21:47:46.365Z,101346.97
2019-03-18T21:50:17.358Z,101342.67
2019-03-18T21:52:48.059Z,101342.11
2019-03-18T21:55:18.694Z,101336.41
2019-03-18T21:57:49.200Z,101330.88
2019-03-18T22:00:20.029Z,101335.27
2019-03-18T22:02:50.619Z,101335.09
2019-03-18T22:05:21.180Z,101335.22
2019-03-18T22:07:51.861Z,101335.63
2019-03-18T22:10:22.346Z,101328.80
2019-03-18T22:12:52.851Z,101331.60
2019-03-18T22:15:24.132Z,101332.59
2019-03-18T22:17:54.688Z,101337.07
2019-03-18T22:20:25.241Z,101327.23
2019-03-18T22:22:55.905Z,101336.95
2019-03-18T22:25:26.404Z,101339.75
2019-03-18T22:27:56.946Z,101345.95
2019-03-18T22:30:27.633Z,101347.02
2019-03-18T22:32:58.166Z,101348.70
2019-03-18T22:35:28.737Z,101345.22
2019-03-18T22:37:59.326Z,101353.23
2019-03-18T22:40:29.832Z,101345.78
2019-03-18T22:43:00.314Z,101345.48
2019-03-18T22:45:30.866Z,101347.46
2019-03-18T22:48:01.381Z,101349.02
2019-03-18T22:50:31.932Z,101353.31
2019-03-18T22:53:02.514Z,101349.78
2019-03-18T22:55:33.055Z,101361.20
2019-03-18T22:58:03.543Z,101363.38
2019-03-18T23:00:47.835Z,101368.05
2019-03-18T23:03:18.479Z,101362.70
2019-03-18T23:05:49.050Z,101373.09
2019-03-18T23:08:19.754Z,101367.79
2019-03-18T23:10:50.315Z,101374.38
2019-03-18T23:13:20.865Z,101372.95
2019-03-18T23:15:51.496Z,101376.02
2019-03-18T23:18:22.000Z,101381.60
2019-03-18T23:20:52.510Z,101385.77
2019-03-18T23:23:23.116Z,101391.91
2019-03-18T23:25:53.615Z,101388.63
2019-03-18T23:28:24.108Z,101391.86
2019-03-18T23:30:54.684Z,101392.55
2019-03-18T23:33:25.181Z,101395.23
2019-03-18T23:35:55.705Z,101395.11
2019-03-18T23:38:26.305Z,101401.39
2019-03-18T23:40:56.787Z,101403.13
2019-03-18T23:43:27.333Z,101401.50
2019-03-18T23:45:57.889Z,101402.78
2019-03-18T23:48:28.525Z,101404.03
2019-03-18T23:50:59.009Z,101419.31
2019-03-18T23:53:29.609Z,101417.19
2019-03-18T23:56:00.119Z,101426.70
2019-03-18T23:58:30.681Z,101422.85
